Time;durP1;ratioP1;P1;durP2;ratioP2;P2;SDS_P1;SDS_P2;PMS_P1;PMS_P2;Temp;Humidity;BMP_temperature;BMP_pressure;BME280_temperature;BME280_humidity;BME280_pressure;Samples;Min_cycle;Max_cycle;Signal;HPM_P1;HPM_P2
2022/10/08 00:00:02;;;;;;;8.65;2.95;;;12.70;99.90;;;;;;2615090;54;20203;-73
2022/10/08 00:02:32;;;;;;;8.18;3.05;;;12.70;99.90;;;;;;2614123;54;20160;-72
2022/10/08 00:05:02;;;;;;;9.05;3.30;;;12.80;99.90;;;;;;2614193;47;20141;-72
2022/10/08 00:07:32;;;;;;;7.93;3.05;;;12.80;99.90;;;;;;2614499;54;20248;-72
2022/10/08 00:10:05;;;;;;;7.20;3.03;;;12.80;99.90;;;;;;2615231;54;20227;-72
2022/10/08 00:12:34;;;;;;;7.10;2.63;;;12.80;99.90;;;;;;2615612;54;20145;-73
2022/10/08 00:15:08;;;;;;;6.13;2.78;;;13.00;99.90;;;;;;2614734;54;20204;-73
2022/10/08 00:17:38;;;;;;;6.07;2.67;;;12.90;99.90;;;;;;2612245;54;20246;-72
2022/10/08 00:20:08;;;;;;;7.13;2.70;;;12.90;99.90;;;;;;2615172;39;20677;-72
2022/10/08 00:22:38;;;;;;;6.15;3.05;;;12.90;99.90;;;;;;2614384;48;20195;-72
2022/10/08 00:25:09;;;;;;;9.05;3.00;;;12.90;99.90;;;;;;2614144;54;20188;-72
2022/10/08 00:27:38;;;;;;;6.25;3.03;;;12.90;99.90;;;;;;2614930;54;20153;-72
2022/10/08 00:30:15;;;;;;;7.25;2.75;;;12.90;99.90;;;;;;2614666;47;20226;-72
2022/10/08 00:32:44;;;;;;;5.95;2.88;;;12.90;99.90;;;;;;2614895;54;20747;-74
2022/10/08 00:35:15;;;;;;;6.35;2.90;;;13.00;99.90;;;;;;2612649;47;20168;-71
2022/10/08 00:37:45;;;;;;;4.88;2.60;;;13.00;99.90;;;;;;2616288;47;20788;-72
2022/10/08 00:40:15;;;;;;;4.72;2.92;;;13.00;99.90;;;;;;2616697;47;20173;-72
2022/10/08 00:42:45;;;;;;;9.88;2.85;;;13.00;99.90;;;;;;2615974;47;20183;-72
2022/10/08 00:45:17;;;;;;;6.25;2.78;;;13.00;99.90;;;;;;2617600;54;20153;-72
2022/10/08 00:47:49;;;;;;;7.10;2.88;;;13.00;99.90;;;;;;2618795;54;20152;-72
2022/10/08 00:50:22;;;;;;;9.80;3.10;;;13.10;99.90;;;;;;2617010;54;20173;-72
2022/10/08 00:52:56;;;;;;;7.43;2.53;;;13.10;99.90;;;;;;2617626;47;20176;-72
2022/10/08 00:55:28;;;;;;;8.05;2.78;;;13.10;99.90;;;;;;2618315;54;20156;-72
2022/10/08 00:58:01;;;;;;;6.18;3.13;;;13.10;99.90;;;;;;2617414;54;20157;-74
2022/10/08 01:00:34;;;;;;;7.90;3.22;;;13.10;99.90;;;;;;2617096;47;20192;-71
2022/10/08 01:03:05;;;;;;;6.63;3.25;;;13.10;99.90;;;;;;2618175;54;20159;-72
2022/10/08 01:05:46;;;;;;;8.07;3.22;;;13.10;99.90;;;;;;2616594;54;20161;-73
2022/10/08 01:08:26;;;;;;;5.72;3.40;;;13.10;99.90;;;;;;2623193;47;20255;-72
2022/10/08 01:11:04;;;;;;;10.95;3.22;;;13.10;99.90;;;;;;2622932;54;20191;-73
2022/10/08 01:13:43;;;;;;;6.78;3.40;;;13.20;99.90;;;;;;2616891;54;20149;-73
2022/10/08 01:16:26;;;;;;;8.27;3.80;;;13.20;99.90;;;;;;2614910;54;20164;-73
2022/10/08 01:19:04;;;;;;;8.25;3.95;;;13.20;99.90;;;;;;2615310;54;20315;-72
2022/10/08 01:21:42;;;;;;;8.50;3.60;;;13.10;99.90;;;;;;2617409;54;20214;-72
2022/10/08 01:25:31;;;;;;;8.90;4.28;;;13.10;99.90;;;;;;2625996;54;20153;-72
2022/10/08 01:27:24;;;;;;;7.18;4.40;;;13.10;99.90;;;;;;2621967;54;20179;-72
2022/10/08 01:29:55;;;;;;;9.68;4.43;;;13.10;99.90;;;;;;2617043;54;20203;-72
2022/10/08 01:32:33;;;;;;;12.77;4.07;;;13.00;99.90;;;;;;2615400;54;20293;-73
2022/10/08 01:35:08;;;;;;;7.88;4.00;;;13.00;99.90;;;;;;2613382;54;20152;-72
2022/10/08 01:37:42;;;;;;;9.70;3.97;;;13.00;99.90;;;;;;2614987;46;20689;-73
2022/10/08 01:40:19;;;;;;;9.32;3.60;;;12.90;99.90;;;;;;2616278;47;21140;-72
2022/10/08 01:42:54;;;;;;;8.25;3.45;;;12.80;99.90;;;;;;2615544;46;20168;-73
2022/10/08 01:45:31;;;;;;;9.20;3.78;;;12.80;99.90;;;;;;2615082;54;20199;-73
2022/10/08 01:48:05;;;;;;;10.68;3.45;;;12.80;99.90;;;;;;2614784;47;20247;-73
2022/10/08 01:50:39;;;;;;;8.25;3.75;;;12.80;99.90;;;;;;2615653;54;20183;-73
2022/10/08 01:53:16;;;;;;;7.25;3.55;;;12.80;99.90;;;;;;2615411;54;20180;-73
2022/10/08 01:55:50;;;;;;;11.38;3.60;;;12.80;99.90;;;;;;2616231;54;20175;-73
2022/10/08 01:58:26;;;;;;;11.15;3.75;;;12.70;99.90;;;;;;2614268;54;20167;-73
2022/10/08 02:00:58;;;;;;;6.00;3.35;;;12.80;99.90;;;;;;2615078;54;20172;-73
2022/10/08 02:03:28;;;;;;;7.68;3.33;;;12.80;99.90;;;;;;2615095;54;20248;-73
2022/10/08 02:05:59;;;;;;;6.78;3.03;;;12.80;99.90;;;;;;2615553;31;20809;-73
2022/10/08 02:08:29;;;;;;;9.88;4.00;;;12.80;99.90;;;;;;2615058;54;20166;-73
2022/10/08 02:10:58;;;;;;;5.78;3.78;;;12.80;99.90;;;;;;2616572;54;20176;-73
2022/10/08 02:13:32;;;;;;;8.07;3.55;;;12.80;99.90;;;;;;2616456;54;20156;-73
2022/10/08 02:16:06;;;;;;;6.28;3.30;;;12.70;99.90;;;;;;2614312;54;20199;-73
2022/10/08 02:18:42;;;;;;;7.43;3.30;;;12.70;99.90;;;;;;2614014;47;20156;-73
2022/10/08 02:21:20;;;;;;;7.45;3.28;;;12.70;99.90;;;;;;2613976;54;20223;-73
2022/10/08 02:23:57;;;;;;;6.40;3.28;;;12.70;99.90;;;;;;2614507;54;20204;-73
2022/10/08 02:26:33;;;;;;;7.30;3.38;;;12.60;99.90;;;;;;2615570;54;20173;-73
2022/10/08 02:29:12;;;;;;;4.88;3.63;;;12.60;99.90;;;;;;2615422;54;20160;-73
2022/10/08 02:31:47;;;;;;;10.07;3.60;;;12.60;99.90;;;;;;2615351;54;20152;-73
2022/10/08 02:34:21;;;;;;;6.80;3.40;;;12.50;99.90;;;;;;2613655;54;20151;-73
2022/10/08 02:36:55;;;;;;;9.98;3.53;;;12.40;99.90;;;;;;2615081;54;20140;-73
2022/10/08 02:39:30;;;;;;;8.63;3.80;;;12.40;99.90;;;;;;2615765;54;20145;-73
2022/10/08 02:45:23;;;;;;;9.18;4.00;;;12.20;99.90;;;;;;2616387;31;20684;-72
2022/10/08 02:48:00;;;;;;;7.50;3.75;;;12.10;99.90;;;;;;2614783;54;20708;-73
2022/10/08 02:50:32;;;;;;;10.32;3.63;;;12.10;99.90;;;;;;2613847;54;20199;-73
2022/10/08 02:53:02;;;;;;;10.40;4.15;;;12.10;99.90;;;;;;2615082;47;20152;-72
2022/10/08 02:55:43;;;;;;;7.53;3.78;;;12.00;99.90;;;;;;2616019;39;20591;-72
2022/10/08 02:58:14;;;;;;;8.07;3.85;;;12.00;99.90;;;;;;2614837;54;20712;-72
2022/10/08 03:00:54;;;;;;;7.63;3.28;;;12.00;99.90;;;;;;2614640;54;23867;-73
2022/10/08 03:03:30;;;;;;;11.60;3.70;;;11.90;99.90;;;;;;2614601;54;20152;-71
2022/10/08 03:06:01;;;;;;;7.25;3.13;;;11.80;99.90;;;;;;2615540;54;20180;-73
2022/10/08 03:08:32;;;;;;;10.27;3.33;;;11.80;99.90;;;;;;2615369;54;20184;-72
2022/10/08 03:11:02;;;;;;;7.95;3.53;;;11.80;99.90;;;;;;2610757;54;20307;-72
2022/10/08 03:13:35;;;;;;;9.18;3.35;;;11.80;99.90;;;;;;2614708;54;20156;-72
2022/10/08 03:16:09;;;;;;;9.18;3.88;;;11.70;99.90;;;;;;2616525;31;20731;-72
2022/10/08 03:18:40;;;;;;;6.88;3.45;;;11.70;99.90;;;;;;2615646;54;20164;-72
2022/10/08 03:21:13;;;;;;;6.07;3.22;;;11.70;99.90;;;;;;2615071;54;20172;-72
2022/10/08 03:23:43;;;;;;;8.23;3.13;;;11.60;99.90;;;;;;2619445;54;20175;-72
2022/10/08 03:26:12;;;;;;;9.10;3.40;;;11.60;99.90;;;;;;2616368;54;20153;-72
2022/10/08 03:28:42;;;;;;;7.93;3.38;;;11.70;99.90;;;;;;2616994;54;20161;-72
2022/10/08 03:31:15;;;;;;;7.78;3.00;;;11.60;99.90;;;;;;2615092;39;20699;-72
2022/10/08 03:33:44;;;;;;;6.95;3.00;;;11.60;99.90;;;;;;2618078;47;20932;-71
2022/10/08 03:36:14;;;;;;;5.90;3.22;;;11.60;99.90;;;;;;2617294;54;20207;-72
2022/10/08 03:38:44;;;;;;;7.05;2.88;;;11.40;99.90;;;;;;2621132;39;20619;-72
2022/10/08 03:41:14;;;;;;;10.70;2.92;;;11.40;99.90;;;;;;2620054;54;20192;-72
2022/10/08 03:43:44;;;;;;;6.95;2.88;;;11.40;99.90;;;;;;2615938;54;20152;-72
2022/10/08 03:46:17;;;;;;;7.15;3.15;;;11.40;99.90;;;;;;2614579;47;20157;-72
2022/10/08 03:48:50;;;;;;;8.52;2.85;;;11.30;99.90;;;;;;2616014;54;20141;-72
2022/10/08 03:51:22;;;;;;;8.68;3.05;;;11.30;99.90;;;;;;2615526;54;20256;-72
2022/10/08 03:53:52;;;;;;;9.13;3.15;;;11.30;99.90;;;;;;2615649;54;20284;-72
2022/10/08 03:56:24;;;;;;;5.03;2.40;;;11.30;99.90;;;;;;2615982;31;20667;-73
2022/10/08 03:58:55;;;;;;;10.93;3.20;;;11.30;99.90;;;;;;2614636;39;20570;-72
2022/10/08 04:01:29;;;;;;;3.58;2.47;;;11.30;99.90;;;;;;2614908;54;20200;-72
2022/10/08 04:03:59;;;;;;;5.05;2.95;;;11.30;99.90;;;;;;2619916;50;20141;-72
2022/10/08 04:06:29;;;;;;;4.78;2.90;;;11.30;99.90;;;;;;2622066;54;20156;-72
2022/10/08 04:08:59;;;;;;;8.38;3.05;;;11.30;99.90;;;;;;2617658;54;20164;-73
2022/10/08 04:11:30;;;;;;;9.88;3.38;;;11.20;99.90;;;;;;2616019;39;20664;-72
2022/10/08 04:14:01;;;;;;;5.90;3.10;;;11.20;99.90;;;;;;2614966;54;20157;-72
2022/10/08 04:16:33;;;;;;;7.25;2.78;;;11.10;99.90;;;;;;2615120;47;20203;-73
2022/10/08 04:19:03;;;;;;;6.22;3.05;;;11.10;99.90;;;;;;2613313;54;20182;-73
2022/10/08 04:21:33;;;;;;;6.88;2.65;;;11.00;99.90;;;;;;2612981;54;20195;-72
2022/10/08 04:24:03;;;;;;;3.90;2.25;;;11.10;99.90;;;;;;2612497;54;20149;-72
2022/10/08 04:26:35;;;;;;;6.82;2.25;;;11.00;99.90;;;;;;2613913;54;20140;-72
2022/10/08 04:29:07;;;;;;;4.97;2.08;;;11.00;99.90;;;;;;2615235;54;20260;-72
2022/10/08 04:31:39;;;;;;;9.25;2.67;;;11.00;99.90;;;;;;2614932;47;20191;-72
2022/10/08 04:34:11;;;;;;;8.60;2.88;;;11.00;99.90;;;;;;2613987;47;20208;-72
2022/10/08 04:36:41;;;;;;;7.10;2.20;;;11.00;99.90;;;;;;2614942;54;20715;-72
2022/10/08 04:39:10;;;;;;;4.78;2.13;;;11.00;99.90;;;;;;2613747;54;20335;-72
2022/10/08 04:41:40;;;;;;;3.85;2.08;;;10.90;99.90;;;;;;2615291;54;20169;-72
2022/10/08 04:44:10;;;;;;;5.55;2.38;;;10.90;99.90;;;;;;2614904;54;20700;-72
2022/10/08 04:46:42;;;;;;;6.72;2.53;;;10.90;99.90;;;;;;2616262;54;20195;-72
2022/10/08 04:49:12;;;;;;;9.40;2.28;;;10.80;99.90;;;;;;2614208;54;20153;-73
2022/10/08 04:51:42;;;;;;;7.65;2.38;;;10.80;99.90;;;;;;2615383;50;20153;-72
2022/10/08 04:54:11;;;;;;;8.73;2.58;;;10.70;99.90;;;;;;2615874;54;20153;-73
2022/10/08 04:56:41;;;;;;;5.57;2.47;;;10.70;99.90;;;;;;2615188;54;20148;-73
2022/10/08 04:59:11;;;;;;;8.32;2.50;;;10.70;99.90;;;;;;2615394;46;20259;-72
2022/10/08 05:01:43;;;;;;;4.57;2.10;;;10.70;99.90;;;;;;2615914;54;20190;-72
2022/10/08 05:04:13;;;;;;;6.68;2.15;;;9.90;99.90;;;;;;2614275;54;20149;-72
2022/10/08 05:06:43;;;;;;;8.52;2.40;;;10.70;99.90;;;;;;2615604;51;20707;-73
2022/10/08 05:09:13;;;;;;;8.95;3.38;;;10.60;99.90;;;;;;2616566;54;20184;-73
2022/10/08 05:11:43;;;;;;;9.23;2.53;;;10.60;99.90;;;;;;2615892;54;20319;-72
2022/10/08 05:14:13;;;;;;;6.95;2.10;;;10.50;99.90;;;;;;2615942;54;20706;-72
2022/10/08 05:16:45;;;;;;;6.45;2.10;;;10.60;99.90;;;;;;2615362;51;20771;-73
2022/10/08 05:19:15;;;;;;;9.93;2.35;;;10.60;99.90;;;;;;2615049;49;20160;-73
2022/10/08 05:21:45;;;;;;;7.18;2.45;;;10.60;99.90;;;;;;2615864;54;20164;-72
2022/10/08 05:24:14;;;;;;;5.40;2.05;;;10.50;99.90;;;;;;2614145;54;20252;-73
2022/10/08 05:26:44;;;;;;;7.28;2.53;;;10.40;99.90;;;;;;2614649;54;20207;-73
2022/10/08 05:29:28;;;;;;;3.80;2.40;;;10.40;99.90;;;;;;2616484;54;20184;-68
2022/10/08 05:32:00;;;;;;;9.07;2.38;;;10.40;99.90;;;;;;2613839;54;20446;-69
2022/10/08 05:34:30;;;;;;;9.20;2.20;;;10.30;99.90;;;;;;2613970;54;20680;-71
2022/10/08 05:37:00;;;;;;;9.45;3.30;;;10.30;99.90;;;;;;2615760;54;20145;-68
2022/10/08 05:39:29;;;;;;;7.00;2.13;;;10.30;99.90;;;;;;2617221;54;20199;-71
2022/10/08 05:41:59;;;;;;;9.38;2.30;;;10.30;99.90;;;;;;2613356;54;20256;-71
2022/10/08 05:44:29;;;;;;;4.32;2.22;;;10.30;99.90;;;;;;2616759;54;20141;-68
2022/10/08 05:47:07;;;;;;;9.55;2.60;;;10.30;99.90;;;;;;2616393;54;20139;-68
2022/10/08 05:49:37;;;;;;;12.50;2.50;;;10.40;99.90;;;;;;2615936;54;20205;-68
2022/10/08 05:52:06;;;;;;;5.07;2.50;;;10.30;99.90;;;;;;2616338;54;20152;-67
2022/10/08 05:54:36;;;;;;;10.07;2.60;;;10.30;99.90;;;;;;2614864;54;20260;-68
2022/10/08 05:57:06;;;;;;;7.13;2.30;;;10.30;99.90;;;;;;2614444;47;20219;-68
2022/10/08 05:59:35;;;;;;;6.10;2.42;;;10.40;99.90;;;;;;2613277;54;20215;-68
2022/10/08 06:02:08;;;;;;;7.40;2.67;;;10.30;99.90;;;;;;2613641;54;20173;-67
2022/10/08 06:04:38;;;;;;;6.45;2.22;;;10.40;99.90;;;;;;2615149;54;20161;-69
2022/10/08 06:07:08;;;;;;;6.28;2.60;;;10.30;99.90;;;;;;2617053;54;21191;-66
2022/10/08 06:09:38;;;;;;;7.43;2.55;;;10.30;99.90;;;;;;2617286;54;20291;-68
2022/10/08 06:12:08;;;;;;;4.95;2.60;;;10.30;99.90;;;;;;2617928;54;20754;-70
2022/10/08 06:14:38;;;;;;;6.57;2.88;;;10.30;99.90;;;;;;2617776;54;20191;-70
2022/10/08 06:17:10;;;;;;;7.18;2.92;;;10.40;99.90;;;;;;2615732;47;20145;-70
2022/10/08 06:19:40;;;;;;;8.13;2.75;;;10.40;99.90;;;;;;2614764;54;20192;-71
2022/10/08 06:22:10;;;;;;;12.85;3.15;;;10.40;99.90;;;;;;2615945;54;20204;-71
2022/10/08 06:24:40;;;;;;;6.18;2.78;;;10.40;99.90;;;;;;2615063;54;20248;-73
2022/10/08 06:27:11;;;;;;;9.50;3.10;;;10.40;99.90;;;;;;2614770;54;20156;-73
2022/10/08 06:29:41;;;;;;;7.97;3.67;;;10.40;99.90;;;;;;2613947;54;20168;-72
2022/10/08 06:32:16;;;;;;;13.95;2.95;;;10.50;99.90;;;;;;2615919;54;20187;-72
2022/10/08 06:34:46;;;;;;;12.32;3.00;;;10.50;99.90;;;;;;2616264;54;20152;-73
2022/10/08 06:37:16;;;;;;;8.30;2.85;;;10.50;99.90;;;;;;2616489;47;20216;-74
2022/10/08 06:39:46;;;;;;;9.13;3.42;;;10.50;99.90;;;;;;2616142;54;20466;-69
2022/10/08 06:42:17;;;;;;;7.90;2.60;;;10.60;99.90;;;;;;2615924;54;20705;-71
2022/10/08 06:44:46;;;;;;;6.33;2.87;;;10.50;99.90;;;;;;2614319;54;20415;-70
2022/10/08 06:47:19;;;;;;;10.10;3.35;;;10.50;99.90;;;;;;2617134;39;20735;-72
2022/10/08 06:49:48;;;;;;;9.77;3.75;;;10.60;99.90;;;;;;2616919;31;20710;-70
2022/10/08 06:52:18;;;;;;;6.47;3.10;;;10.60;99.90;;;;;;2614963;54;20200;-71
2022/10/08 06:54:48;;;;;;;5.10;2.63;;;10.70;99.90;;;;;;2614747;54;20205;-69
2022/10/08 06:57:18;;;;;;;8.93;3.17;;;10.70;99.90;;;;;;2614704;47;20179;-70
2022/10/08 06:59:47;;;;;;;7.53;3.20;;;10.70;99.90;;;;;;2614057;54;20692;-72
2022/10/08 07:02:20;;;;;;;8.80;2.85;;;10.80;99.90;;;;;;2615199;54;20204;-71
2022/10/08 07:04:50;;;;;;;8.63;2.80;;;10.80;99.90;;;;;;2613927;47;20164;-70
2022/10/08 07:07:19;;;;;;;10.95;3.10;;;10.90;99.90;;;;;;2614930;54;20192;-72
2022/10/08 07:09:49;;;;;;;7.82;2.90;;;10.90;99.90;;;;;;2613682;54;20284;-71
2022/10/08 07:12:18;;;;;;;12.43;3.10;;;11.00;99.90;;;;;;2614389;54;20588;-75
2022/10/08 07:14:48;;;;;;;8.00;2.85;;;11.10;99.90;;;;;;2615289;54;20787;-70
2022/10/08 07:17:21;;;;;;;6.45;2.70;;;11.20;99.90;;;;;;2614870;54;20414;-70
2022/10/08 07:19:51;;;;;;;9.15;2.63;;;11.20;99.90;;;;;;2614064;54;20555;-70
2022/10/08 07:22:20;;;;;;;8.63;2.85;;;11.30;99.90;;;;;;2614035;54;20252;-73
2022/10/08 07:24:50;;;;;;;9.48;2.97;;;11.40;99.90;;;;;;2614687;54;20594;-69
2022/10/08 07:27:21;;;;;;;9.43;2.90;;;11.40;99.90;;;;;;2613623;54;20203;-74
2022/10/08 07:29:52;;;;;;;6.85;2.53;;;11.50;99.90;;;;;;2614800;31;20693;-71
2022/10/08 07:32:28;;;;;;;7.30;2.65;;;11.60;99.90;;;;;;2615475;31;20611;-72
2022/10/08 07:34:57;;;;;;;6.05;2.90;;;11.60;99.90;;;;;;2613913;47;20160;-71
2022/10/08 07:37:28;;;;;;;6.22;2.53;;;11.70;99.90;;;;;;2619595;39;20554;-70
2022/10/08 07:40:00;;;;;;;6.55;2.65;;;11.80;99.90;;;;;;2619041;47;20741;-71
2022/10/08 07:42:31;;;;;;;11.38;2.83;;;11.90;99.90;;;;;;2618927;54;20176;-71
2022/10/08 07:45:01;;;;;;;7.30;2.90;;;12.00;99.90;;;;;;2616013;54;20152;-71
2022/10/08 07:47:33;;;;;;;5.30;2.85;;;12.10;99.90;;;;;;2614958;54;20216;-70
2022/10/08 07:50:03;;;;;;;11.43;2.88;;;12.20;99.90;;;;;;2615276;47;20189;-74
2022/10/08 07:52:38;;;;;;;7.72;2.42;;;12.30;99.90;;;;;;2614371;39;20648;-69
2022/10/08 07:55:12;;;;;;;5.40;2.63;;;12.40;99.90;;;;;;2614236;46;20167;-70
2022/10/08 07:57:42;;;;;;;8.48;2.85;;;12.50;99.90;;;;;;2613793;47;20442;-71
2022/10/08 08:00:13;;;;;;;8.25;2.92;;;12.60;99.90;;;;;;2613317;54;20747;-72
2022/10/08 08:02:45;;;;;;;6.25;2.45;;;12.50;99.90;;;;;;2612803;54;20236;-72
2022/10/08 08:05:15;;;;;;;8.68;2.70;;;12.60;99.90;;;;;;2613536;54;20236;-71
2022/10/08 08:07:45;;;;;;;7.35;2.53;;;12.70;99.90;;;;;;2614449;31;20601;-71
2022/10/08 08:10:21;;;;;;;6.30;3.10;;;12.70;99.90;;;;;;2613590;54;21035;-71
2022/10/08 08:12:51;;;;;;;5.28;2.63;;;12.80;99.90;;;;;;2612372;54;20322;-70
2022/10/08 08:15:21;;;;;;;9.52;3.03;;;12.80;99.90;;;;;;2612018;39;20595;-70
2022/10/08 08:17:54;;;;;;;10.55;3.30;;;12.90;99.90;;;;;;2614479;54;20335;-71
2022/10/08 08:20:26;;;;;;;8.33;2.80;;;13.00;99.90;;;;;;2612602;54;20423;-71
2022/10/08 08:22:56;;;;;;;8.00;2.75;;;13.00;99.90;;;;;;2614627;54;20433;-69
2022/10/08 08:25:26;;;;;;;10.68;2.92;;;13.10;99.90;;;;;;2614948;47;20187;-69
2022/10/08 08:27:56;;;;;;;8.65;2.88;;;13.20;99.90;;;;;;2616175;54;20446;-70
2022/10/08 08:30:26;;;;;;;9.00;2.60;;;13.20;99.90;;;;;;2614926;47;20192;-70
2022/10/08 08:33:01;;;;;;;8.20;2.63;;;13.20;99.90;;;;;;2616956;31;20625;-70
2022/10/08 08:35:31;;;;;;;5.40;2.22;;;13.30;99.90;;;;;;2613828;54;20160;-69
2022/10/08 08:38:00;;;;;;;9.98;2.75;;;13.30;99.90;;;;;;2613981;54;20168;-70
2022/10/08 08:40:30;;;;;;;7.90;2.50;;;13.40;99.90;;;;;;2615858;54;20192;-70
2022/10/08 08:43:00;;;;;;;6.97;2.53;;;13.50;99.90;;;;;;2615093;54;20693;-71
2022/10/08 08:45:34;;;;;;;7.70;2.42;;;13.60;99.90;;;;;;2614954;54;20156;-70
2022/10/08 08:48:21;;;;;;;7.32;2.63;;;13.70;99.90;;;;;;2615430;47;20704;-70
2022/10/08 08:50:55;;;;;;;9.20;2.38;;;13.80;99.90;;;;;;2615582;54;20184;-70
2022/10/08 08:53:25;;;;;;;3.17;2.05;;;13.80;99.90;;;;;;2614601;47;20211;-69
2022/10/08 08:55:57;;;;;;;10.25;2.50;;;13.80;99.90;;;;;;2613915;54;20165;-69
2022/10/08 08:58:34;;;;;;;8.23;2.70;;;13.90;99.90;;;;;;2615707;39;20241;-72
2022/10/08 09:01:16;;;;;;;6.10;2.45;;;13.80;99.90;;;;;;2613741;54;20307;-70
2022/10/08 09:03:53;;;;;;;7.82;2.88;;;13.90;99.90;;;;;;2613620;54;20187;-70
2022/10/08 09:06:25;;;;;;;6.30;2.50;;;13.90;99.90;;;;;;2612914;54;20152;-71
2022/10/08 09:08:59;;;;;;;7.80;2.08;;;14.00;99.90;;;;;;2614648;47;20156;-72
2022/10/08 09:11:31;;;;;;;6.07;2.22;;;14.00;99.90;;;;;;2614886;46;20200;-71
2022/10/08 09:14:14;;;;;;;7.97;2.83;;;14.10;99.90;;;;;;2614353;54;20161;-70
2022/10/08 09:16:44;;;;;;;8.50;2.50;;;14.20;99.90;;;;;;2614736;54;20177;-70
2022/10/08 09:19:16;;;;;;;8.43;3.03;;;14.30;99.90;;;;;;2614538;54;20411;-72
2022/10/08 09:21:46;;;;;;;7.75;2.80;;;14.30;99.90;;;;;;2613176;54;20157;-70
2022/10/08 09:24:17;;;;;;;5.30;2.03;;;14.50;99.90;;;;;;2614244;54;20779;-70
2022/10/08 09:26:47;;;;;;;8.75;2.45;;;14.70;99.90;;;;;;2614720;51;20257;-71
2022/10/08 09:29:34;;;;;;;6.20;2.25;;;15.00;99.90;;;;;;2616385;54;20183;-71
2022/10/08 09:32:06;;;;;;;4.88;1.90;;;15.40;99.90;;;;;;2613827;54;20251;-70
2022/10/08 09:34:42;;;;;;;9.65;2.08;;;15.60;99.90;;;;;;2610529;54;20173;-70
2022/10/08 09:37:21;;;;;;;12.32;2.63;;;15.80;99.90;;;;;;2613421;47;20696;-70
2022/10/08 09:40:08;;;;;;;7.00;2.55;;;15.80;99.90;;;;;;2614653;54;20180;-70
2022/10/08 09:42:37;;;;;;;10.38;2.25;;;15.90;99.90;;;;;;2612696;54;20195;-68
2022/10/08 09:45:34;;;;;;;7.35;2.00;;;15.90;99.90;;;;;;2612485;54;20292;-71
2022/10/08 09:48:21;;;;;;;8.10;2.25;;;15.90;99.90;;;;;;2613000;54;20175;-68
2022/10/08 09:51:00;;;;;;;6.05;2.10;;;16.00;99.90;;;;;;2611667;54;20311;-70
2022/10/08 09:53:36;;;;;;;8.45;2.08;;;16.10;99.90;;;;;;2613700;46;20311;-70
2022/10/08 09:56:08;;;;;;;8.60;2.25;;;16.10;99.90;;;;;;2611967;54;20331;-67
2022/10/08 09:58:42;;;;;;;4.38;1.70;;;16.20;99.90;;;;;;2612652;54;20730;-68
2022/10/08 10:01:19;;;;;;;4.88;1.83;;;16.30;99.90;;;;;;2613108;47;20235;-67
2022/10/08 10:03:55;;;;;;;5.28;1.38;;;16.30;99.90;;;;;;2613495;54;20160;-68
2022/10/08 10:06:35;;;;;;;5.47;1.67;;;16.40;99.90;;;;;;2612095;39;20764;-67
2022/10/08 10:09:20;;;;;;;4.05;1.50;;;16.30;99.90;;;;;;2611466;54;20156;-68
2022/10/08 10:11:55;;;;;;;4.82;2.05;;;16.20;99.90;;;;;;2612500;54;20692;-68
2022/10/08 10:14:29;;;;;;;3.80;1.48;;;16.20;99.90;;;;;;2612456;47;20294;-68
2022/10/08 10:17:04;;;;;;;2.72;1.30;;;16.20;99.90;;;;;;2613301;54;20700;-70
2022/10/08 10:19:44;;;;;;;3.50;1.90;;;16.20;99.90;;;;;;2613928;54;20164;-69
2022/10/08 10:22:22;;;;;;;4.32;1.80;;;16.20;99.90;;;;;;2612735;47;20353;-68
2022/10/08 10:25:00;;;;;;;10.25;2.42;;;16.20;99.90;;;;;;2613114;54;20164;-69
2022/10/08 10:27:36;;;;;;;4.57;1.88;;;16.20;99.90;;;;;;2612243;47;20156;-68
2022/10/08 10:30:15;;;;;;;6.38;1.65;;;16.30;99.90;;;;;;2613103;47;20327;-67
2022/10/08 10:32:50;;;;;;;5.47;1.70;;;16.30;99.90;;;;;;2610589;54;20172;-68
2022/10/08 10:35:25;;;;;;;6.80;1.77;;;16.30;99.90;;;;;;2612954;54;20748;-68
2022/10/08 10:38:08;;;;;;;8.07;1.75;;;16.40;99.90;;;;;;2612679;47;20839;-68
2022/10/08 10:40:44;;;;;;;5.38;1.77;;;16.40;99.90;;;;;;2610967;54;20742;-70
2022/10/08 10:43:41;;;;;;;4.63;1.80;;;16.50;99.90;;;;;;2612726;54;20156;-70
2022/10/08 10:46:29;;;;;;;2.85;1.58;;;16.70;99.90;;;;;;2611909;54;20292;-71
2022/10/08 10:49:00;;;;;;;6.63;2.08;;;16.80;99.90;;;;;;2612550;54;20408;-70
2022/10/08 10:51:54;;;;;;;5.95;1.80;;;17.00;99.90;;;;;;2613745;39;20576;-69
2022/10/08 10:54:43;;;;;;;4.28;1.70;;;17.10;99.90;;;;;;2613057;54;20755;-68
2022/10/08 10:57:23;;;;;;;5.25;1.77;;;17.30;99.90;;;;;;2613000;54;20284;-69
2022/10/08 11:00:05;;;;;;;3.80;1.63;;;17.40;99.90;;;;;;2614229;54;20256;-69
2022/10/08 11:02:44;;;;;;;7.00;1.83;;;17.40;99.90;;;;;;2614367;54;20152;-68
2022/10/08 11:05:19;;;;;;;4.03;1.80;;;17.30;99.90;;;;;;2612821;54;20148;-68
2022/10/08 11:08:04;;;;;;;4.50;1.50;;;17.30;99.90;;;;;;2612736;54;20248;-70
2022/10/08 11:10:48;;;;;;;4.72;1.77;;;17.30;99.90;;;;;;2613868;54;22404;-69
2022/10/08 11:13:40;;;;;;;7.05;2.08;;;17.20;99.90;;;;;;2612953;54;20153;-71
2022/10/08 11:16:24;;;;;;;3.13;1.60;;;17.30;99.90;;;;;;2613821;54;20149;-71
2022/10/08 11:18:56;;;;;;;6.05;1.88;;;17.40;99.90;;;;;;2614232;47;20211;-72
2022/10/08 11:21:36;;;;;;;8.32;2.00;;;17.40;99.90;;;;;;2613686;47;20300;-71
2022/10/08 11:24:28;;;;;;;7.15;2.33;;;17.40;99.90;;;;;;2614406;49;20211;-72
2022/10/08 11:27:12;;;;;;;3.47;1.80;;;17.30;99.90;;;;;;2613085;54;20185;-71
2022/10/08 11:29:49;;;;;;;6.53;2.10;;;17.20;99.90;;;;;;2616598;54;20192;-72
2022/10/08 11:32:21;;;;;;;8.80;2.67;;;17.20;99.90;;;;;;2615156;54;20151;-72
2022/10/08 11:34:56;;;;;;;9.00;2.60;;;17.20;99.90;;;;;;2612275;54;20157;-74
2022/10/08 11:37:29;;;;;;;6.85;2.72;;;17.20;99.90;;;;;;2610774;54;20252;-76
2022/10/08 11:40:09;;;;;;;4.45;2.00;;;17.10;99.90;;;;;;2611850;54;20211;-72
2022/10/08 11:42:45;;;;;;;5.53;2.10;;;17.10;99.90;;;;;;2614564;47;20688;-71
2022/10/08 11:45:32;;;;;;;7.85;1.92;;;17.10;99.90;;;;;;2617631;39;20575;-71
2022/10/08 11:48:04;;;;;;;6.15;2.50;;;17.20;99.90;;;;;;2613096;54;20156;-74
2022/10/08 11:50:39;;;;;;;6.55;2.15;;;17.10;99.90;;;;;;2614139;54;20187;-74
2022/10/08 11:53:20;;;;;;;4.72;2.00;;;17.10;99.90;;;;;;2615073;54;20149;-75
2022/10/08 11:55:54;;;;;;;5.18;1.90;;;17.20;99.90;;;;;;2614033;47;20168;-74
2022/10/08 11:58:29;;;;;;;6.65;2.25;;;17.20;99.90;;;;;;2614245;39;20632;-75
2022/10/08 12:01:06;;;;;;;5.93;1.83;;;17.20;99.90;;;;;;2614802;54;20231;-74
2022/10/08 12:03:39;;;;;;;6.05;2.08;;;17.30;99.90;;;;;;2616496;47;20156;-75
2022/10/08 12:06:18;;;;;;;8.25;2.50;;;17.30;99.90;;;;;;2614956;54;20978;-76
2022/10/08 12:08:53;;;;;;;6.45;2.40;;;17.30;99.90;;;;;;2613772;47;20164;-75
2022/10/08 12:11:48;;;;;;;5.43;2.30;;;17.30;99.90;;;;;;2615286;54;20199;-79
